Time;durP1;ratioP1;P1;durP2;ratioP2;P2;SDS_P1;SDS_P2;PMS_P1;PMS_P2;Temp;Humidity;BMP_temperature;BMP_pressure;BME280_temperature;BME280_humidity;BME280_pressure;Samples;Min_cycle;Max_cycle;Signal;HPM_P1;HPM_P2
2023/01/02 00:02:15;;;;;;;;;;;;;;;;;;5056501;28;20374;-58
2023/01/02 00:04:41;;;;;;;;;;;;;;;;;;5045074;28;19936;-58
2023/01/02 00:07:07;;;;;;;;;;;;;;;;;;5040232;28;19987;-58
2023/01/02 00:09:33;;;;;;;;;;;;;;;;;;5045223;28;19932;-57
2023/01/02 00:11:59;;;;;;;;;;;;;;;;;;5040653;28;19925;-57
2023/01/02 00:14:25;;;;;;;;;;;;;;;;;;5044449;28;20391;-58
2023/01/02 00:16:51;;;;;;;;;;;;;;;;;;5046298;28;19928;-57
2023/01/02 00:19:17;;;;;;;;;;;;;;;;;;5037188;28;20031;-58
2023/01/02 00:21:43;;;;;;;;;;;;;;;;;;5044635;28;20491;-57
2023/01/02 00:24:09;;;;;;;;;;;;;;;;;;5038289;28;19925;-57
2023/01/02 00:26:35;;;;;;;;;;;;;;;;;;5053164;28;19943;-57
2023/01/02 00:29:01;;;;;;;;;;;;;;;;;;5041864;28;20581;-57
2023/01/02 00:31:27;;;;;;;;;;;;;;;;;;5045621;28;19935;-57
2023/01/02 00:33:53;;;;;;;;;;;;;;;;;;5044343;28;19925;-57
2023/01/02 00:36:19;;;;;;;;;;;;;;;;;;5047466;28;19955;-56
2023/01/02 00:38:45;;;;;;;;;;;;;;;;;;5040400;28;19921;-57
2023/01/02 00:41:11;;;;;;;;;;;;;;;;;;5040752;28;19925;-57
2023/01/02 00:43:37;;;;;;;;;;;;;;;;;;5049816;28;19928;-57
2023/01/02 00:46:03;;;;;;;;;;;;;;;;;;5048117;28;19924;-58
2023/01/02 00:48:29;;;;;;;;;;;;;;;;;;5048702;28;19925;-59
2023/01/02 00:50:55;;;;;;;;;;;;;;;;;;5045205;28;19944;-57
2023/01/02 00:53:21;;;;;;;;;;;;;;;;;;5048880;28;20366;-57
2023/01/02 00:55:47;;;;;;;;;;;;;;;;;;5051180;28;19956;-57
2023/01/02 00:58:13;;;;;;;;;;;;;;;;;;5040563;28;20416;-57
2023/01/02 01:00:39;;;;;;;;;;;;;;;;;;5048666;28;19968;-58
2023/01/02 01:03:05;;;;;;;;;;;;;;;;;;5048635;28;19925;-57
2023/01/02 01:05:31;;;;;;;;;;;;;;;;;;5047556;28;19931;-57
2023/01/02 01:07:57;;;;;;;;;;;;;;;;;;5050973;28;20340;-57
2023/01/02 01:10:23;;;;;;;;;;;;;;;;;;5047216;28;19935;-56
2023/01/02 01:12:49;;;;;;;;;;;;;;;;;;5050492;28;19983;-58
2023/01/02 01:15:15;;;;;;;;;;;;;;;;;;5047724;28;20375;-56
2023/01/02 01:17:41;;;;;;;;;;;;;;;;;;5047740;28;19935;-57
2023/01/02 01:20:07;;;;;;;;;;;;;;;;;;5048704;28;19925;-57
2023/01/02 01:22:33;;;;;;;;;;;;;;;;;;5047653;28;20391;-58
2023/01/02 01:24:59;;;;;;;;;;;;;;;;;;5047601;28;20012;-57
2023/01/02 01:27:25;;;;;;;;;;;;;;;;;;5047171;28;19958;-57
2023/01/02 01:29:51;;;;;;;;;;;;;;;;;;5045999;28;20374;-57
2023/01/02 01:32:17;;;;;;;;;;;;;;;;;;5046990;28;20023;-58
2023/01/02 01:34:43;;;;;;;;;;;;;;;;;;5047262;28;19937;-57
2023/01/02 01:37:09;;;;;;;;;;;;;;;;;;5047602;28;20725;-57
2023/01/02 01:39:35;;;;;;;;;;;;;;;;;;5049118;28;19924;-57
2023/01/02 01:42:01;;;;;;;;;;;;;;;;;;5054621;28;19983;-57
2023/01/02 01:44:27;;;;;;;;;;;;;;;;;;5028143;28;20603;-57
2023/01/02 01:46:53;;;;;;;;;;;;;;;;;;5046053;28;19929;-56
2023/01/02 01:49:19;;;;;;;;;;;;;;;;;;5030055;28;19928;-57
2023/01/02 01:51:45;;;;;;;;;;;;;;;;;;5047688;28;19932;-56
2023/01/02 01:54:11;;;;;;;;;;;;;;;;;;5043674;28;19960;-56
2023/01/02 01:56:37;;;;;;;;;;;;;;;;;;5046229;28;19933;-57
2023/01/02 01:59:03;;;;;;;;;;;;;;;;;;5046923;28;19983;-57
2023/01/02 02:01:29;;;;;;;;;;;;;;;;;;5046364;28;20417;-59
2023/01/02 02:03:55;;;;;;;;;;;;;;;;;;5051148;28;20011;-57
2023/01/02 02:06:21;;;;;;;;;;;;;;;;;;5048654;28;19979;-57
2023/01/02 02:08:47;;;;;;;;;;;;;;;;;;5037487;28;19925;-58
2023/01/02 02:11:13;;;;;;;;;;;;;;;;;;5052063;28;19932;-56
2023/01/02 02:13:39;;;;;;;;;;;;;;;;;;5044922;28;20271;-57
2023/01/02 02:16:05;;;;;;;;;;;;;;;;;;5052000;28;19925;-57
2023/01/02 02:18:31;;;;;;;;;;;;;;;;;;5056915;28;19970;-58
2023/01/02 02:20:57;;;;;;;;;;;;;;;;;;5045692;28;19933;-58
2023/01/02 02:23:23;;;;;;;;;;;;;;;;;;5054607;28;19932;-57
2023/01/02 02:25:49;;;;;;;;;;;;;;;;;;5052763;28;19941;-57
2023/01/02 02:28:15;;;;;;;;;;;;;;;;;;5051093;28;20009;-57
2023/01/02 02:30:41;;;;;;;;;;;;;;;;;;5044905;28;19924;-56
2023/01/02 02:33:07;;;;;;;;;;;;;;;;;;5048317;28;20370;-57
2023/01/02 02:35:33;;;;;;;;;;;;;;;;;;5052758;28;19932;-57
2023/01/02 02:37:59;;;;;;;;;;;;;;;;;;5045975;28;19924;-59
2023/01/02 02:40:25;;;;;;;;;;;;;;;;;;5047601;28;20432;-57
2023/01/02 02:42:51;;;;;;;;;;;;;;;;;;5047058;28;19963;-58
2023/01/02 02:45:17;;;;;;;;;;;;;;;;;;5052656;28;19947;-57
2023/01/02 02:47:43;;;;;;;;;;;;;;;;;;5037225;28;19931;-58
2023/01/02 02:50:09;;;;;;;;;;;;;;;;;;5053464;28;20290;-57
2023/01/02 02:52:35;;;;;;;;;;;;;;;;;;5040798;28;19940;-57
2023/01/02 02:55:01;;;;;;;;;;;;;;;;;;5044728;28;19974;-57
2023/01/02 02:57:27;;;;;;;;;;;;;;;;;;5051398;28;19962;-58
2023/01/02 02:59:53;;;;;;;;;;;;;;;;;;5049821;28;19925;-57
2023/01/02 03:02:19;;;;;;;;;;;;;;;;;;5054958;28;20414;-57
2023/01/02 03:04:45;;;;;;;;;;;;;;;;;;5054558;28;19924;-57
2023/01/02 03:07:11;;;;;;;;;;;;;;;;;;5061575;28;19928;-58
2023/01/02 03:09:37;;;;;;;;;;;;;;;;;;5055918;28;19928;-57
2023/01/02 03:12:03;;;;;;;;;;;;;;;;;;5055288;28;19947;-58
2023/01/02 03:14:29;;;;;;;;;;;;;;;;;;5059790;28;19925;-57
2023/01/02 03:16:55;;;;;;;;;;;;;;;;;;5064331;28;19932;-57
2023/01/02 03:19:21;;;;;;;;;;;;;;;;;;5061487;28;19924;-57
2023/01/02 03:21:47;;;;;;;;;;;;;;;;;;5059501;28;19929;-58
2023/01/02 03:24:13;;;;;;;;;;;;;;;;;;5052152;28;20393;-57
2023/01/02 03:26:39;;;;;;;;;;;;;;;;;;5060631;28;19929;-56
2023/01/02 03:29:05;;;;;;;;;;;;;;;;;;5063426;28;19978;-57
2023/01/02 03:31:31;;;;;;;;;;;;;;;;;;5057542;28;19921;-56
2023/01/02 03:33:57;;;;;;;;;;;;;;;;;;5059162;28;19940;-57
2023/01/02 03:36:23;;;;;;;;;;;;;;;;;;5061200;28;20390;-57
2023/01/02 03:38:49;;;;;;;;;;;;;;;;;;5051039;28;19983;-57
2023/01/02 03:41:15;;;;;;;;;;;;;;;;;;5054010;28;19944;-57
2023/01/02 03:43:41;;;;;;;;;;;;;;;;;;5055380;28;20590;-58
2023/01/02 03:46:07;;;;;;;;;;;;;;;;;;5053421;28;19935;-56
2023/01/02 03:48:33;;;;;;;;;;;;;;;;;;5061362;28;19982;-58
2023/01/02 03:50:59;;;;;;;;;;;;;;;;;;5064197;28;20000;-57
2023/01/02 03:53:25;;;;;;;;;;;;;;;;;;5057104;28;20058;-58
2023/01/02 03:55:51;;;;;;;;;;;;;;;;;;5064046;28;19924;-57
2023/01/02 03:58:17;;;;;;;;;;;;;;;;;;5057193;28;19936;-57
2023/01/02 04:00:43;;;;;;;;;;;;;;;;;;5059346;28;20620;-57
2023/01/02 04:03:09;;;;;;;;;;;;;;;;;;5061191;28;20299;-57
2023/01/02 04:05:35;;;;;;;;;;;;;;;;;;5064018;28;20385;-57
2023/01/02 04:08:01;;;;;;;;;;;;;;;;;;5064737;28;19925;-57
2023/01/02 04:10:27;;;;;;;;;;;;;;;;;;5064799;28;20214;-57
2023/01/02 04:12:53;;;;;;;;;;;;;;;;;;5068119;28;19924;-58
2023/01/02 04:15:19;;;;;;;;;;;;;;;;;;5069310;28;19935;-57
2023/01/02 04:17:45;;;;;;;;;;;;;;;;;;5068199;28;20018;-58
2023/01/02 04:20:11;;;;;;;;;;;;;;;;;;5068737;28;19924;-57
2023/01/02 04:22:37;;;;;;;;;;;;;;;;;;5067925;28;19936;-57
2023/01/02 04:25:03;;;;;;;;;;;;;;;;;;5068215;28;20421;-57
2023/01/02 04:27:29;;;;;;;;;;;;;;;;;;5068519;28;19925;-59
2023/01/02 04:29:55;;;;;;;;;;;;;;;;;;5068623;28;19947;-58
2023/01/02 04:32:21;;;;;;;;;;;;;;;;;;5068058;28;19928;-57
2023/01/02 04:34:47;;;;;;;;;;;;;;;;;;5068081;28;19935;-57
2023/01/02 04:37:13;;;;;;;;;;;;;;;;;;5064581;28;19954;-57
2023/01/02 04:39:39;;;;;;;;;;;;;;;;;;5066780;28;19920;-57
2023/01/02 04:42:05;;;;;;;;;;;;;;;;;;5068005;28;20366;-57
2023/01/02 04:44:31;;;;;;;;;;;;;;;;;;5068390;28;19920;-57
2023/01/02 04:46:57;;;;;;;;;;;;;;;;;;5068885;28;19924;-57
2023/01/02 04:49:25;;;;;;;;;;;;;;;;;;5067975;28;20270;-57
2023/01/02 04:51:51;;;;;;;;;;;;;;;;;;5067796;28;19920;-57
2023/01/02 04:54:17;;;;;;;;;;;;;;;;;;5068159;28;19929;-56
2023/01/02 04:56:43;;;;;;;;;;;;;;;;;;5066504;28;19928;-57
2023/01/02 04:59:09;;;;;;;;;;;;;;;;;;5067802;28;19975;-57
2023/01/02 05:01:35;;;;;;;;;;;;;;;;;;5067758;28;20015;-57
2023/01/02 05:04:01;;;;;;;;;;;;;;;;;;5067987;28;19924;-56
2023/01/02 05:06:27;;;;;;;;;;;;;;;;;;5067999;28;19929;-58
2023/01/02 05:08:53;;;;;;;;;;;;;;;;;;5067471;28;20050;-57
2023/01/02 05:11:19;;;;;;;;;;;;;;;;;;5067362;28;19981;-57
2023/01/02 05:13:45;;;;;;;;;;;;;;;;;;5066940;28;19985;-57
2023/01/02 05:16:11;;;;;;;;;;;;;;;;;;5067328;28;19978;-58
2023/01/02 05:18:37;;;;;;;;;;;;;;;;;;5067313;28;20513;-58
2023/01/02 05:21:03;;;;;;;;;;;;;;;;;;5067770;28;19924;-58
2023/01/02 05:23:47;;;;;;;;;;;;;;;;;;5066337;28;19930;-59
2023/01/02 05:26:13;;;;;;;;;;;;;;;;;;5066624;28;19932;-58
2023/01/02 05:28:39;;;;;;;;;;;;;;;;;;5066985;28;19924;-58
2023/01/02 05:31:05;;;;;;;;;;;;;;;;;;5067396;28;20535;-57
2023/01/02 05:33:31;;;;;;;;;;;;;;;;;;5066190;28;19925;-57
2023/01/02 05:35:57;;;;;;;;;;;;;;;;;;5067860;28;19932;-57
2023/01/02 05:38:23;;;;;;;;;;;;;;;;;;5067178;28;19921;-57
2023/01/02 05:40:49;;;;;;;;;;;;;;;;;;5066090;28;19932;-58
2023/01/02 05:43:15;;;;;;;;;;;;;;;;;;5067529;28;20069;-58
2023/01/02 05:45:41;;;;;;;;;;;;;;;;;;5065571;28;19978;-57
2023/01/02 05:48:07;;;;;;;;;;;;;;;;;;5066021;28;19924;-57
2023/01/02 05:50:33;;;;;;;;;;;;;;;;;;5048435;28;20288;-57
2023/01/02 05:58:54;;;;;;;;;;;;;;;;;;5066691;28;20319;-58
2023/01/02 06:01:20;;;;;;;;;;;;;;;;;;5046116;28;19970;-59
2023/01/02 06:03:46;;;;;;;;;;;;;;;;;;5044464;28;19925;-57
2023/01/02 06:06:12;;;;;;;;;;;;;;;;;;5024790;28;19953;-58
2023/01/02 06:08:38;;;;;;;;;;;;;;;;;;5043694;28;20118;-58
2023/01/02 06:11:04;;;;;;;;;;;;;;;;;;5045030;28;20388;-58
2023/01/02 06:13:30;;;;;;;;;;;;;;;;;;5044202;28;19936;-59
2023/01/02 06:15:56;;;;;;;;;;;;;;;;;;5045546;28;19925;-58
2023/01/02 06:18:22;;;;;;;;;;;;;;;;;;5037388;28;19925;-58
2023/01/02 06:20:48;;;;;;;;;;;;;;;;;;5044989;28;20038;-58
2023/01/02 06:23:14;;;;;;;;;;;;;;;;;;5043175;28;19985;-58
2023/01/02 06:25:41;;;;;;;;;;;;;;;;;;5042214;28;19968;-58
2023/01/02 06:28:07;;;;;;;;;;;;;;;;;;5044611;28;19983;-57
2023/01/02 06:30:33;;;;;;;;;;;;;;;;;;5045013;28;20003;-56
2023/01/02 06:32:59;;;;;;;;;;;;;;;;;;5045365;28;20074;-59
2023/01/02 06:35:25;;;;;;;;;;;;;;;;;;5044291;28;20618;-57
2023/01/02 06:37:51;;;;;;;;;;;;;;;;;;5044771;28;19932;-58
2023/01/02 06:40:16;;;;;;;;;;;;;;;;;;5042368;28;19931;-58
2023/01/02 06:42:43;;;;;;;;;;;;;;;;;;5044203;28;20405;-58
2023/01/02 06:45:09;;;;;;;;;;;;;;;;;;5044509;28;19951;-58
2023/01/02 06:47:35;;;;;;;;;;;;;;;;;;5042600;28;19943;-59
2023/01/02 06:50:01;;;;;;;;;;;;;;;;;;5044917;28;19924;-59
2023/01/02 06:52:27;;;;;;;;;;;;;;;;;;5044366;28;20031;-58
2023/01/02 06:54:53;;;;;;;;;;;;;;;;;;5040552;28;20325;-58
2023/01/02 06:57:19;;;;;;;;;;;;;;;;;;5042776;28;19929;-58
2023/01/02 06:59:45;;;;;;;;;;;;;;;;;;5043891;28;20302;-58
2023/01/02 07:02:11;;;;;;;;;;;;;;;;;;5042813;28;19933;-56
2023/01/02 07:04:37;;;;;;;;;;;;;;;;;;5038879;28;19925;-58
2023/01/02 07:07:03;;;;;;;;;;;;;;;;;;5045896;28;19928;-57
2023/01/02 07:09:29;;;;;;;;;;;;;;;;;;5014115;28;19978;-57
2023/01/02 07:11:55;;;;;;;;;;;;;;;;;;5043436;28;19968;-57
2023/01/02 07:14:21;;;;;;;;;;;;;;;;;;5042565;28;19996;-57
2023/01/02 07:16:47;;;;;;;;;;;;;;;;;;5044912;28;20031;-57
2023/01/02 07:19:13;;;;;;;;;;;;;;;;;;5036767;28;20446;-57
2023/01/02 07:21:39;;;;;;;;;;;;;;;;;;5036329;28;19925;-57
2023/01/02 07:24:05;;;;;;;;;;;;;;;;;;5036131;28;19924;-56
2023/01/02 07:26:31;;;;;;;;;;;;;;;;;;5034310;28;19925;-57
2023/01/02 07:28:57;;;;;;;;;;;;;;;;;;5033143;28;19925;-56
2023/01/02 07:31:23;;;;;;;;;;;;;;;;;;5038044;28;20386;-57
2023/01/02 07:33:49;;;;;;;;;;;;;;;;;;5033190;28;19929;-57
2023/01/02 07:36:15;;;;;;;;;;;;;;;;;;5041938;28;19925;-57
2023/01/02 07:38:41;;;;;;;;;;;;;;;;;;5027599;28;19983;-57
2023/01/02 07:41:07;;;;;;;;;;;;;;;;;;5035669;28;19964;-57
2023/01/02 07:43:33;;;;;;;;;;;;;;;;;;5043552;28;19932;-57
2023/01/02 07:46:00;;;;;;;;;;;;;;;;;;5035834;28;20677;-57
2023/01/02 07:48:26;;;;;;;;;;;;;;;;;;5041585;28;19928;-57
2023/01/02 07:50:52;;;;;;;;;;;;;;;;;;5039230;28;19925;-55
2023/01/02 07:53:18;;;;;;;;;;;;;;;;;;5035956;28;19936;-58
2023/01/02 07:55:44;;;;;;;;;;;;;;;;;;5034591;28;20579;-57
2023/01/02 07:58:10;;;;;;;;;;;;;;;;;;5028812;28;19932;-57
2023/01/02 08:00:36;;;;;;;;;;;;;;;;;;5027815;28;19924;-57
2023/01/02 08:03:02;;;;;;;;;;;;;;;;;;5040116;28;19990;-57
2023/01/02 08:05:28;;;;;;;;;;;;;;;;;;5023003;28;20421;-57
2023/01/02 08:07:54;;;;;;;;;;;;;;;;;;5040235;28;20649;-57
2023/01/02 08:10:20;;;;;;;;;;;;;;;;;;5039862;28;19938;-57
2023/01/02 08:12:46;;;;;;;;;;;;;;;;;;5039497;28;19933;-57
2023/01/02 08:15:12;;;;;;;;;;;;;;;;;;5037829;28;19974;-57
2023/01/02 08:17:40;;;;;;;;;;;;;;;;;;5037980;28;20011;-58
2023/01/02 08:20:06;;;;;;;;;;;;;;;;;;5037695;28;19964;-57
2023/01/02 08:22:32;;;;;;;;;;;;;;;;;;5038917;28;20021;-58
2023/01/02 08:24:58;;;;;;;;;;;;;;;;;;5036341;28;19936;-55
2023/01/02 08:27:24;;;;;;;;;;;;;;;;;;5039793;28;20017;-57
2023/01/02 08:29:50;;;;;;;;;;;;;;;;;;5039419;28;20320;-57
2023/01/02 08:32:16;;;;;;;;;;;;;;;;;;5041193;28;20378;-56
2023/01/02 08:34:42;;;;;;;;;;;;;;;;;;5036994;28;20642;-56
2023/01/02 08:37:08;;;;;;;;;;;;;;;;;;5039897;28;19935;-57
2023/01/02 08:39:34;;;;;;;;;;;;;;;;;;5040274;28;19932;-57
2023/01/02 08:42:00;;;;;;;;;;;;;;;;;;5042002;28;19925;-57
2023/01/02 08:44:26;;;;;;;;;;;;;;;;;;5042258;28;19935;-58
2023/01/02 08:46:52;;;;;;;;;;;;;;;;;;5040641;28;19933;-57
2023/01/02 08:49:19;;;;;;;;;;;;;;;;;;5038683;28;20813;-57
2023/01/02 08:51:45;;;;;;;;;;;;;;;;;;5037190;28;20341;-57
2023/01/02 08:54:11;;;;;;;;;;;;;;;;;;5037987;28;21342;-55
2023/01/02 08:56:37;;;;;;;;;;;;;;;;;;5037234;28;19928;-57
2023/01/02 08:59:03;;;;;;;;;;;;;;;;;;5040639;28;20347;-57
2023/01/02 09:01:29;;;;;;;;;;;;;;;;;;5039427;28;19928;-56
2023/01/02 09:03:55;;;;;;;;;;;;;;;;;;5044535;28;19951;-58
2023/01/02 09:06:21;;;;;;;;;;;;;;;;;;5025226;28;19962;-57
2023/01/02 09:08:47;;;;;;;;;;;;;;;;;;5057943;28;20369;-58
2023/01/02 09:11:13;;;;;;;;;;;;;;;;;;5059568;28;19935;-57
2023/01/02 09:13:39;;;;;;;;;;;;;;;;;;5060283;28;19929;-57
2023/01/02 09:16:05;;;;;;;;;;;;;;;;;;5051329;28;19968;-58
2023/01/02 09:18:31;;;;;;;;;;;;;;;;;;5062668;28;19967;-57
2023/01/02 09:20:57;;;;;;;;;;;;;;;;;;5041567;28;19972;-56
2023/01/02 09:23:23;;;;;;;;;;;;;;;;;;5046205;28;19933;-57
2023/01/02 09:25:49;;;;;;;;;;;;;;;;;;5043768;28;19928;-58
2023/01/02 09:28:15;;;;;;;;;;;;;;;;;;5061079;28;19929;-58
2023/01/02 09:30:41;;;;;;;;;;;;;;;;;;5051728;28;20002;-56
2023/01/02 09:33:07;;;;;;;;;;;;;;;;;;5040720;28;20412;-57
2023/01/02 09:35:33;;;;;;;;;;;;;;;;;;5046106;28;19929;-57
2023/01/02 09:37:59;;;;;;;;;;;;;;;;;;5053005;28;19924;-57
2023/01/02 09:40:26;;;;;;;;;;;;;;;;;;5059297;28;20348;-57
2023/01/02 09:42:52;;;;;;;;;;;;;;;;;;5034957;28;20017;-57
2023/01/02 09:45:18;;;;;;;;;;;;;;;;;;5053571;28;19975;-56
2023/01/02 09:47:44;;;;;;;;;;;;;;;;;;5057886;28;20340;-56
2023/01/02 09:50:10;;;;;;;;;;;;;;;;;;5053419;28;19935;-58
2023/01/02 09:52:36;;;;;;;;;;;;;;;;;;5043805;28;20397;-57
2023/01/02 09:55:02;;;;;;;;;;;;;;;;;;5045302;28;19928;-58
2023/01/02 09:57:28;;;;;;;;;;;;;;;;;;5060915;28;19939;-57
2023/01/02 09:59:54;;;;;;;;;;;;;;;;;;5049684;28;19928;-58
2023/01/02 10:02:20;;;;;;;;;;;;;;;;;;5046872;28;20306;-57
2023/01/02 10:04:46;;;;;;;;;;;;;;;;;;5055017;28;19936;-57
2023/01/02 10:07:12;;;;;;;;;;;;;;;;;;5048169;28;19983;-56
2023/01/02 10:09:38;;;;;;;;;;;;;;;;;;5050728;28;19933;-57
2023/01/02 10:12:04;;;;;;;;;;;;;;;;;;5038934;28;20713;-58
2023/01/02 10:14:30;;;;;;;;;;;;;;;;;;5040942;28;19980;-58
2023/01/02 10:16:56;;;;;;;;;;;;;;;;;;5030603;28;19925;-57
2023/01/02 10:19:22;;;;;;;;;;;;;;;;;;5043218;28;20829;-57
2023/01/02 10:21:48;;;;;;;;;;;;;;;;;;5042485;28;19933;-58
2023/01/02 10:24:14;;;;;;;;;;;;;;;;;;5045343;28;19932;-57
2023/01/02 10:26:40;;;;;;;;;;;;;;;;;;5046646;28;19931;-57
2023/01/02 10:29:06;;;;;;;;;;;;;;;;;;5057360;28;19928;-57
2023/01/02 10:31:32;;;;;;;;;;;;;;;;;;5047145;28;19940;-58
2023/01/02 10:33:58;;;;;;;;;;;;;;;;;;5055622;28;19986;-57
2023/01/02 10:36:25;;;;;;;;;;;;;;;;;;5048726;28;19932;-58
2023/01/02 10:38:51;;;;;;;;;;;;;;;;;;5048643;28;19924;-57
2023/01/02 10:41:17;;;;;;;;;;;;;;;;;;5048509;28;19936;-56
2023/01/02 10:43:43;;;;;;;;;;;;;;;;;;5048079;28;19928;-54
2023/01/02 10:46:09;;;;;;;;;;;;;;;;;;5040943;28;19924;-58
2023/01/02 10:48:35;;;;;;;;;;;;;;;;;;5049746;28;19932;-56
2023/01/02 10:51:01;;;;;;;;;;;;;;;;;;5050441;28;19942;-57
2023/01/02 10:53:27;;;;;;;;;;;;;;;;;;5050582;28;19929;-57
2023/01/02 10:55:53;;;;;;;;;;;;;;;;;;5046851;28;20449;-60
2023/01/02 10:58:19;;;;;;;;;;;;;;;;;;5041437;28;19929;-59
2023/01/02 11:00:45;;;;;;;;;;;;;;;;;;5044088;28;19925;-58
2023/01/02 11:03:11;;;;;;;;;;;;;;;;;;5055915;28;19935;-58
2023/01/02 11:05:38;;;;;;;;;;;;;;;;;;5040991;28;20032;-57
2023/01/02 11:08:04;;;;;;;;;;;;;;;;;;5033027;28;20015;-58
2023/01/02 11:10:30;;;;;;;;;;;;;;;;;;5047892;28;19929;-54
2023/01/02 11:12:56;;;;;;;;;;;;;;;;;;5050375;28;20592;-58
2023/01/02 11:15:22;;;;;;;;;;;;;;;;;;5044982;28;20333;-57
2023/01/02 11:17:48;;;;;;;;;;;;;;;;;;5044862;28;20586;-58
2023/01/02 11:20:14;;;;;;;;;;;;;;;;;;5042427;28;19936;-57
2023/01/02 11:22:40;;;;;;;;;;;;;;;;;;5037926;28;19987;-58
2023/01/02 11:25:06;;;;;;;;;;;;;;;;;;5047240;28;20374;-58
2023/01/02 11:27:32;;;;;;;;;;;;;;;;;;5040333;28;19943;-57
2023/01/02 11:29:59;;;;;;;;;;;;;;;;;;5040484;28;19929;-56
2023/01/02 11:32:25;;;;;;;;;;;;;;;;;;5037203;28;19933;-58
2023/01/02 11:34:51;;;;;;;;;;;;;;;;;;5043895;28;19936;-58
2023/01/02 11:37:17;;;;;;;;;;;;;;;;;;5043155;28;19948;-57
2023/01/02 11:39:43;;;;;;;;;;;;;;;;;;5045320;28;19956;-57
2023/01/02 11:44:54;;;;;;;;;;;;;;;;;;5047028;28;19924;-58
2023/01/02 11:47:20;;;;;;;;;;;;;;;;;;5037137;28;19927;-57
2023/01/02 11:49:47;;;;;;;;;;;;;;;;;;5046708;28;19944;-55
2023/01/02 11:52:13;;;;;;;;;;;;;;;;;;5046563;28;20278;-55
2023/01/02 11:54:40;;;;;;;;;;;;;;;;;;5035089;28;20572;-56
2023/01/02 11:57:06;;;;;;;;;;;;;;;;;;5038031;28;19932;-56
2023/01/02 11:59:32;;;;;;;;;;;;;;;;;;5049482;28;19958;-56
2023/01/02 12:01:58;;;;;;;;;;;;;;;;;;5043676;28;19929;-58
2023/01/02 12:04:24;;;;;;;;;;;;;;;;;;5041393;28;20035;-57
2023/01/02 12:06:50;;;;;;;;;;;;;;;;;;5041073;28;20027;-55
2023/01/02 12:09:16;;;;;;;;;;;;;;;;;;5039317;28;20363;-58
2023/01/02 12:11:42;;;;;;;;;;;;;;;;;;5038573;28;19946;-58
2023/01/02 12:14:08;;;;;;;;;;;;;;;;;;5039346;28;19995;-57
2023/01/02 12:16:34;;;;;;;;;;;;;;;;;;5039546;28;20002;-56
2023/01/02 12:43:11;;;;;;;;;;;;;;;;;;5043160;28;19975;-57
2023/01/02 12:54:49;;;;;;;;;;;;;;;;;;5043138;28;20376;-58
2023/01/02 13:06:14;;;;;;;;;;;;;;;;;;5060938;28;20300;-58
2023/01/02 13:35:25;;;;;;;;;;;;;;;;;;5058890;28;20281;-57
2023/01/02 13:56:02;;;;;;;;;;;;;;;;;;5054632;28;19927;-56
2023/01/02 15:02:39;;;;;;;;;;;;;;;;;;5042004;28;19932;-57
2023/01/02 15:05:05;;;;;;;;;;;;;;;;;;5045169;28;19932;-56
2023/01/02 15:07:31;;;;;;;;;;;;;;;;;;5031066;28;19932;-57
2023/01/02 15:09:57;;;;;;;;;;;;;;;;;;5044580;28;20273;-57
2023/01/02 15:15:08;;;;;;;;;;;;;;;;;;5039639;28;19931;-57
2023/01/02 15:17:34;;;;;;;;;;;;;;;;;;5042797;28;19925;-56
2023/01/02 15:20:00;;;;;;;;;;;;;;;;;;5041398;28;19941;-55
2023/01/02 15:22:26;;;;;;;;;;;;;;;;;;5042677;28;19925;-57
2023/01/02 15:24:52;;;;;;;;;;;;;;;;;;5042177;28;19931;-57
2023/01/02 15:27:18;;;;;;;;;;;;;;;;;;5043830;28;19970;-58
2023/01/02 15:29:44;;;;;;;;;;;;;;;;;;5040542;28;20581;-57
2023/01/02 15:32:10;;;;;;;;;;;;;;;;;;5044623;28;20415;-57
2023/01/02 15:34:36;;;;;;;;;;;;;;;;;;5039873;28;20020;-56
2023/01/02 15:37:02;;;;;;;;;;;;;;;;;;5044437;28;19933;-57
2023/01/02 15:39:28;;;;;;;;;;;;;;;;;;5043382;28;19924;-56
2023/01/02 15:41:54;;;;;;;;;;;;;;;;;;5046772;28;19925;-57
2023/01/02 15:47:07;;;;;;;;;;;;;;;;;;5042779;28;19947;-57
2023/01/02 15:49:33;;;;;;;;;;;;;;;;;;5047681;28;19979;-55
2023/01/02 15:51:59;;;;;;;;;;;;;;;;;;5044743;28;19933;-55
2023/01/02 15:54:26;;;;;;;;;;;;;;;;;;5044349;28;19971;-56
2023/01/02 15:56:52;;;;;;;;;;;;;;;;;;5045397;28;19971;-53
2023/01/02 15:59:18;;;;;;;;;;;;;;;;;;5045175;28;19921;-56
2023/01/02 16:01:44;;;;;;;;;;;;;;;;;;5044560;28;19948;-57
2023/01/02 16:04:10;;;;;;;;;;;;;;;;;;5044425;28;20788;-57
2023/01/02 16:06:36;;;;;;;;;;;;;;;;;;5034815;28;19925;-56
2023/01/02 16:09:02;;;;;;;;;;;;;;;;;;5043344;28;19932;-57
2023/01/02 16:11:28;;;;;;;;;;;;;;;;;;5031598;28;19925;-57
2023/01/02 16:16:39;;;;;;;;;;;;;;;;;;5038572;28;19931;-57
2023/01/02 16:19:05;;;;;;;;;;;;;;;;;;5040422;28;20019;-57
2023/01/02 16:21:31;;;;;;;;;;;;;;;;;;5032602;28;19929;-58
2023/01/02 16:23:57;;;;;;;;;;;;;;;;;;5036556;28;20406;-57
2023/01/02 16:26:23;;;;;;;;;;;;;;;;;;5034428;28;19925;-57
2023/01/02 16:28:49;;;;;;;;;;;;;;;;;;5044032;28;20271;-57
2023/01/02 16:31:15;;;;;;;;;;;;;;;;;;5035715;28;20387;-56
2023/01/02 16:33:41;;;;;;;;;;;;;;;;;;5043813;28;20394;-57
2023/01/02 16:36:07;;;;;;;;;;;;;;;;;;5039658;28;20011;-57
2023/01/02 16:38:34;;;;;;;;;;;;;;;;;;5035337;28;19925;-56
2023/01/02 16:41:01;;;;;;;;;;;;;;;;;;5035789;28;19925;-57
2023/01/02 16:43:29;;;;;;;;;;;;;;;;;;5045740;28;19979;-58
2023/01/02 16:45:55;;;;;;;;;;;;;;;;;;5040725;28;19924;-59
2023/01/02 16:48:21;;;;;;;;;;;;;;;;;;5037192;28;19932;-53
2023/01/02 16:50:47;;;;;;;;;;;;;;;;;;5038476;28;19925;-57
2023/01/02 16:53:13;;;;;;;;;;;;;;;;;;5037113;28;19978;-54
2023/01/02 16:55:39;;;;;;;;;;;;;;;;;;5032909;28;19935;-57
2023/01/02 16:58:05;;;;;;;;;;;;;;;;;;5042695;28;20011;-57
2023/01/02 17:00:31;;;;;;;;;;;;;;;;;;5046467;28;20694;-56
2023/01/02 17:02:57;;;;;;;;;;;;;;;;;;5045794;28;19931;-56
2023/01/02 17:05:23;;;;;;;;;;;;;;;;;;5056898;28;20043;-57
2023/01/02 17:07:49;;;;;;;;;;;;;;;;;;5066345;28;20429;-57
2023/01/02 17:10:15;;;;;;;;;;;;;;;;;;5066315;28;19932;-58
2023/01/02 17:12:41;;;;;;;;;;;;;;;;;;5063736;28;19927;-57
2023/01/02 17:15:07;;;;;;;;;;;;;;;;;;5065324;28;19924;-57
2023/01/02 17:17:33;;;;;;;;;;;;;;;;;;5065176;28;19954;-56
2023/01/02 17:19:59;;;;;;;;;;;;;;;;;;5065163;28;19928;-56
2023/01/02 17:22:26;;;;;;;;;;;;;;;;;;5066277;28;19924;-57
2023/01/02 17:24:54;;;;;;;;;;;;;;;;;;5065327;28;19920;-57
2023/01/02 17:27:20;;;;;;;;;;;;;;;;;;5066828;28;20457;-57
2023/01/02 17:29:46;;;;;;;;;;;;;;;;;;5062677;28;19927;-57
2023/01/02 17:32:12;;;;;;;;;;;;;;;;;;5065802;28;19925;-54
2023/01/02 17:34:38;;;;;;;;;;;;;;;;;;5063520;28;19969;-57
2023/01/02 17:37:04;;;;;;;;;;;;;;;;;;5063997;28;20289;-56
2023/01/02 17:39:30;;;;;;;;;;;;;;;;;;5061267;28;21756;-55
2023/01/02 17:41:56;;;;;;;;;;;;;;;;;;5065229;28;20086;-57
2023/01/02 17:44:22;;;;;;;;;;;;;;;;;;5063335;28;19970;-57
2023/01/02 17:46:48;;;;;;;;;;;;;;;;;;5064453;28;20429;-55
2023/01/02 17:49:15;;;;;;;;;;;;;;;;;;5061334;28;20097;-55
2023/01/02 17:51:41;;;;;;;;;;;;;;;;;;5045916;28;20615;-57
2023/01/02 17:54:07;;;;;;;;;;;;;;;;;;5064841;28;19928;-56
2023/01/02 17:56:33;;;;;;;;;;;;;;;;;;5064248;28;19970;-55
2023/01/02 17:58:59;;;;;;;;;;;;;;;;;;5064619;28;19928;-55
2023/01/02 18:01:26;;;;;;;;;;;;;;;;;;5065469;28;19927;-56
2023/01/02 18:03:52;;;;;;;;;;;;;;;;;;5064745;28;19925;-56
2023/01/02 18:06:18;;;;;;;;;;;;;;;;;;5046506;28;19928;-54
2023/01/02 18:08:44;;;;;;;;;;;;;;;;;;5043511;28;19932;-55
2023/01/02 18:11:10;;;;;;;;;;;;;;;;;;5045633;28;19979;-55
2023/01/02 18:13:36;;;;;;;;;;;;;;;;;;5044916;28;20377;-57
2023/01/02 18:16:02;;;;;;;;;;;;;;;;;;5045468;28;19932;-57
2023/01/02 18:18:29;;;;;;;;;;;;;;;;;;5045593;28;19925;-56
2023/01/02 18:20:55;;;;;;;;;;;;;;;;;;5046561;28;19932;-57
2023/01/02 18:23:21;;;;;;;;;;;;;;;;;;5039472;28;20012;-54
2023/01/02 18:25:47;;;;;;;;;;;;;;;;;;5037298;28;19920;-56
2023/01/02 18:28:13;;;;;;;;;;;;;;;;;;5046127;28;19925;-56
2023/01/02 18:30:39;;;;;;;;;;;;;;;;;;5041499;28;19928;-57
2023/01/02 18:33:05;;;;;;;;;;;;;;;;;;5045278;28;19978;-56
2023/01/02 18:35:31;;;;;;;;;;;;;;;;;;5045021;28;20333;-57
2023/01/02 18:37:57;;;;;;;;;;;;;;;;;;5042414;28;19921;-56
2023/01/02 18:40:23;;;;;;;;;;;;;;;;;;5044418;28;19932;-56
2023/01/02 18:42:50;;;;;;;;;;;;;;;;;;5041629;28;20315;-57
2023/01/02 18:45:16;;;;;;;;;;;;;;;;;;5043225;28;20316;-56
2023/01/02 18:47:42;;;;;;;;;;;;;;;;;;5041939;28;19975;-56
2023/01/02 18:50:08;;;;;;;;;;;;;;;;;;5042188;28;19925;-57
2023/01/02 18:52:35;;;;;;;;;;;;;;;;;;5032914;28;19929;-56
2023/01/02 18:55:01;;;;;;;;;;;;;;;;;;5035152;28;20665;-54
2023/01/02 18:57:27;;;;;;;;;;;;;;;;;;5041316;28;19944;-53
2023/01/02 18:59:53;;;;;;;;;;;;;;;;;;5037958;28;19925;-56
2023/01/02 19:02:19;;;;;;;;;;;;;;;;;;5041370;28;19944;-55
2023/01/02 19:04:45;;;;;;;;;;;;;;;;;;5041677;28;19925;-54
2023/01/02 19:07:11;;;;;;;;;;;;;;;;;;5039829;28;20382;-56
2023/01/02 19:09:37;;;;;;;;;;;;;;;;;;5031510;28;19925;-54
2023/01/02 19:14:48;;;;;;;;;;;;;;;;;;5031205;28;19951;-56
2023/01/02 19:17:14;;;;;;;;;;;;;;;;;;5038741;28;20069;-58
2023/01/02 19:19:40;;;;;;;;;;;;;;;;;;5041464;28;20006;-60
2023/01/02 19:22:06;;;;;;;;;;;;;;;;;;5042143;28;19980;-59
2023/01/02 19:24:32;;;;;;;;;;;;;;;;;;5037243;28;19925;-60
2023/01/02 19:26:58;;;;;;;;;;;;;;;;;;5042053;28;19983;-59
2023/01/02 19:29:25;;;;;;;;;;;;;;;;;;5029632;28;19994;-58